createdAt,value
2023-01-01T00:00:24.911Z,9.278501
2023-01-01T00:01:24.846Z,9.278491
2023-01-01T00:02:24.936Z,9.278456
2023-01-01T00:03:24.813Z,9.278427
2023-01-01T00:04:24.847Z,9.278591
2023-01-01T00:05:24.819Z,9.278546
2023-01-01T00:06:24.803Z,9.278354
2023-01-01T00:07:24.754Z,9.278245
2023-01-01T00:08:24.726Z,9.278193
2023-01-01T00:09:24.728Z,9.278217
2023-01-01T00:10:24.724Z,9.278254
2023-01-01T00:11:24.686Z,9.278263
2023-01-01T00:12:24.655Z,9.278020
2023-01-01T00:13:24.640Z,9.278089
2023-01-01T00:14:24.643Z,9.278363
2023-01-01T00:15:24.636Z,9.278308
2023-01-01T00:16:24.617Z,9.278255
2023-01-01T00:17:24.579Z,9.278279
2023-01-01T00:18:24.548Z,9.278254
2023-01-01T00:19:24.543Z,9.278152
2023-01-01T00:20:26.670Z,9.278151
2023-01-01T00:21:25.522Z,9.278219
2023-01-01T00:23:26.477Z,9.278232
2023-01-01T00:24:24.464Z,9.278273
2023-01-01T00:25:24.470Z,9.278270
2023-01-01T00:26:28.162Z,9.278317
2023-01-01T00:27:25.399Z,9.278290
2023-01-01T00:28:24.382Z,9.278296
2023-01-01T00:29:24.365Z,9.278228
2023-01-01T00:30:24.398Z,9.278339
2023-01-01T00:31:24.402Z,9.278230
2023-01-01T00:32:24.342Z,9.278226
2023-01-01T00:33:24.319Z,9.278210
2023-01-01T00:34:24.284Z,9.278190
2023-01-01T00:35:24.324Z,9.278182
2023-01-01T00:36:24.243Z,9.278169
2023-01-01T00:37:24.236Z,9.278167
2023-01-01T00:38:25.224Z,9.278209
2023-01-01T00:39:24.202Z,9.278233
2023-01-01T00:40:24.221Z,9.278342
2023-01-01T00:41:24.180Z,9.278377
2023-01-01T00:42:24.147Z,9.278394
2023-01-01T00:43:24.135Z,9.278252
2023-01-01T00:44:24.114Z,9.278234
2023-01-01T00:45:24.137Z,9.278278
2023-01-01T00:46:24.163Z,9.278288
2023-01-01T00:47:24.063Z,9.278268
2023-01-01T00:48:24.057Z,9.278264
2023-01-01T00:49:24.035Z,9.278306
2023-01-01T00:50:24.062Z,9.278314
2023-01-01T00:51:24.000Z,9.278362
2023-01-01T00:52:23.987Z,9.278325
2023-01-01T00:53:23.963Z,9.278275
2023-01-01T00:54:23.960Z,9.278199
2023-01-01T00:55:23.970Z,9.278176
2023-01-01T00:56:23.937Z,9.278232
2023-01-01T00:57:23.922Z,9.278203
2023-01-01T00:58:23.898Z,9.278251
2023-01-01T00:59:28.491Z,9.278163
2023-01-01T01:00:25.889Z,9.278042
2023-01-01T01:01:23.895Z,9.278420
2023-01-01T01:02:23.924Z,9.278438
2023-01-01T01:03:23.834Z,9.278374
2023-01-01T01:04:24.003Z,9.278335
2023-01-01T01:05:23.788Z,9.278345
2023-01-01T01:06:23.738Z,9.278488
2023-01-01T01:07:23.730Z,9.278631
2023-01-01T01:08:30.245Z,9.278436
2023-01-01T01:09:25.703Z,9.278513
2023-01-01T01:10:23.705Z,9.278572
2023-01-01T01:11:23.649Z,9.278531
2023-01-01T01:12:23.635Z,9.278664
2023-01-01T01:13:23.620Z,9.278638
2023-01-01T01:14:23.602Z,9.278627
2023-01-01T01:15:23.620Z,9.278315
2023-01-01T01:16:23.645Z,9.278495
2023-01-01T01:17:23.561Z,9.278475
2023-01-01T01:18:23.555Z,9.278337
2023-01-01T01:19:23.519Z,9.278272
2023-01-01T01:20:23.564Z,9.278277
2023-01-01T01:21:23.487Z,9.278392
2023-01-01T01:22:28.332Z,9.278194
2023-01-01T01:23:25.461Z,9.278169
2023-01-01T01:24:23.441Z,9.278290
2023-01-01T01:25:23.445Z,9.278306
2023-01-01T01:26:23.396Z,9.278555
2023-01-01T01:27:23.377Z,9.278545
2023-01-01T01:28:23.366Z,9.278590
2023-01-01T01:29:23.360Z,9.278518
2023-01-01T01:30:23.382Z,9.278371
2023-01-01T01:31:23.332Z,9.278255
2023-01-01T01:32:23.307Z,9.278393
2023-01-01T01:33:23.283Z,9.278419
2023-01-01T01:34:27.859Z,9.278378
2023-01-01T01:35:25.291Z,9.278358
2023-01-01T01:36:23.238Z,9.278440
2023-01-01T01:37:23.236Z,9.278441
2023-01-01T01:38:23.199Z,9.278410
2023-01-01T01:39:23.176Z,9.278399
2023-01-01T01:40:23.191Z,9.278382
2023-01-01T01:41:28.309Z,9.278434
2023-01-01T01:42:25.127Z,9.278432
2023-01-01T01:43:28.974Z,9.278416
2023-01-01T01:44:24.085Z,9.278297
2023-01-01T01:45:27.047Z,9.278365
2023-01-01T01:46:24.086Z,9.278401
2023-01-01T01:47:23.039Z,9.278424
2023-01-01T01:48:23.039Z,9.278148
2023-01-01T01:49:23.089Z,9.278178
2023-01-01T01:50:23.020Z,9.278167
2023-01-01T01:51:22.981Z,9.278070
2023-01-01T01:52:22.977Z,9.278112
2023-01-01T01:53:22.936Z,9.277934
2023-01-01T01:54:22.935Z,9.277993
2023-01-01T01:55:22.945Z,9.278000
2023-01-01T01:56:22.893Z,9.277837
2023-01-01T01:57:22.870Z,9.278130
2023-01-01T01:58:22.855Z,9.278182
2023-01-01T01:59:22.907Z,9.278209
2023-01-01T02:00:22.892Z,9.278240
2023-01-01T02:01:22.857Z,9.278252
2023-01-01T02:02:22.912Z,9.278333
2023-01-01T02:03:22.852Z,9.278319
2023-01-01T02:04:22.803Z,9.278345
2023-01-01T02:05:22.761Z,9.278332
2023-01-01T02:06:22.823Z,9.278253
2023-01-01T02:07:22.783Z,9.278316
2023-01-01T02:08:22.784Z,9.278307
2023-01-01T02:09:22.775Z,9.278329
2023-01-01T02:10:22.695Z,9.278507
2023-01-01T02:11:22.637Z,9.278339
2023-01-01T02:12:22.613Z,9.278325
2023-01-01T02:13:22.599Z,9.278332
2023-01-01T02:14:22.600Z,9.278325
2023-01-01T02:15:22.601Z,9.278315
2023-01-01T02:16:22.572Z,9.278218
2023-01-01T02:17:22.531Z,9.278275
2023-01-01T02:18:22.520Z,9.278286
2023-01-01T02:19:22.498Z,9.278243
2023-01-01T02:20:22.544Z,9.278287
2023-01-01T02:21:22.487Z,9.278327
2023-01-01T02:22:22.486Z,9.278343
2023-01-01T02:23:22.423Z,9.278318
2023-01-01T02:24:22.418Z,9.278295
2023-01-01T02:25:22.397Z,9.278287
2023-01-01T02:26:22.417Z,9.278302
2023-01-01T02:27:22.362Z,9.278313
2023-01-01T02:28:22.396Z,9.278270
2023-01-01T02:29:22.331Z,9.278290
2023-01-01T02:30:22.334Z,9.278214
2023-01-01T02:31:23.552Z,9.278193
2023-01-01T02:32:23.299Z,9.278283
2023-01-01T02:33:22.271Z,9.278376
2023-01-01T02:34:22.249Z,9.278328
2023-01-01T02:35:22.243Z,9.278232
2023-01-01T02:36:22.243Z,9.278194
2023-01-01T02:37:22.200Z,9.278229
2023-01-01T02:38:22.183Z,9.278242
2023-01-01T02:39:22.173Z,9.278268
2023-01-01T02:40:22.145Z,9.278244
2023-01-01T02:41:22.170Z,9.278259
2023-01-01T02:42:22.114Z,9.278235
2023-01-01T02:43:24.989Z,9.278328
2023-01-01T02:44:23.079Z,9.278228
2023-01-01T02:45:22.095Z,9.278334
2023-01-01T02:51:08.983Z,9.278307
2023-01-01T02:52:08.955Z,9.278296
2023-01-01T02:53:08.914Z,9.278288
2023-01-01T02:54:08.888Z,9.278408
2023-01-01T02:55:08.856Z,9.278305
2023-01-01T02:56:08.868Z,9.278322
2023-01-01T02:57:08.819Z,9.278218
2023-01-01T02:58:08.801Z,9.278053
2023-01-01T02:59:08.789Z,9.278185
2023-01-01T03:00:08.831Z,9.278211
2023-01-01T03:01:08.911Z,9.278197
2023-01-01T03:02:08.912Z,9.278253
2023-01-01T03:03:08.868Z,9.278105
2023-01-01T03:04:08.688Z,9.278229
2023-01-01T03:05:08.687Z,9.278353
2023-01-01T03:06:08.684Z,9.278175
2023-01-01T03:07:08.633Z,9.278217
2023-01-01T03:08:08.624Z,9.278308
2023-01-01T03:09:08.612Z,9.278254
2023-01-01T03:10:08.575Z,9.278501
2023-01-01T03:11:08.609Z,9.278301
2023-01-01T03:12:08.558Z,9.278181
2023-01-01T03:13:08.531Z,9.278289
2023-01-01T03:14:08.529Z,9.278208
2023-01-01T03:15:08.492Z,9.278200
2023-01-01T03:16:08.538Z,9.278313
2023-01-01T03:17:08.462Z,9.278226
2023-01-01T03:18:08.454Z,9.278295
2023-01-01T03:19:08.628Z,9.278181
2023-01-01T03:20:09.409Z,9.278224
2023-01-01T03:21:08.423Z,9.278209
2023-01-01T03:22:08.381Z,9.278244
2023-01-01T03:23:08.361Z,9.278316
2023-01-01T03:24:08.344Z,9.278209
2023-01-01T03:25:08.339Z,9.278223
2023-01-01T03:26:08.336Z,9.278201
2023-01-01T03:27:08.291Z,9.278096
2023-01-01T03:28:08.275Z,9.278137
2023-01-01T03:29:08.252Z,9.278111
2023-01-01T03:30:08.265Z,9.278206
2023-01-01T03:31:08.270Z,9.278317
2023-01-01T03:32:08.202Z,9.278327
2023-01-01T03:33:08.229Z,9.278266
2023-01-01T03:34:08.172Z,9.278234
2023-01-01T03:35:08.159Z,9.278117
2023-01-01T03:36:08.172Z,9.278154
2023-01-01T03:37:40.502Z,9.278214
2023-01-01T03:38:08.114Z,9.278279
2023-01-01T03:39:08.089Z,9.277916
2023-01-01T03:40:08.090Z,9.278031
2023-01-01T03:41:08.086Z,9.277899
2023-01-01T03:42:08.037Z,9.278395
2023-01-01T03:43:08.035Z,9.278121
2023-01-01T03:44:08.015Z,9.278009
2023-01-01T03:45:07.988Z,9.278385
2023-01-01T03:46:08.016Z,9.278201
2023-01-01T03:47:07.957Z,9.278215
2023-01-01T03:48:07.948Z,9.277989
2023-01-01T03:49:07.927Z,9.278065
2023-01-01T03:50:07.920Z,9.278170
2023-01-01T03:51:07.959Z,9.278139
2023-01-01T03:52:07.892Z,9.278141
2023-01-01T03:53:07.881Z,9.278238
2023-01-01T03:54:07.842Z,9.278210
2023-01-01T03:55:07.820Z,9.278140
2023-01-01T03:56:07.836Z,9.278116
2023-01-01T03:57:07.790Z,9.277951
2023-01-01T03:58:07.801Z,9.278182
2023-01-01T03:59:07.769Z,9.278301
2023-01-01T04:00:07.736Z,9.278159
2023-01-01T04:01:07.794Z,9.278194
2023-01-01T04:02:07.797Z,9.278193
2023-01-01T04:03:07.843Z,9.278249
2023-01-01T04:04:07.676Z,9.278109
2023-01-01T04:05:07.663Z,9.278168
2023-01-01T04:06:07.696Z,9.278154
2023-01-01T04:07:15.121Z,9.278132
2023-01-01T04:08:09.608Z,9.278111
2023-01-01T04:09:07.581Z,9.278147
2023-01-01T04:10:07.579Z,9.278100
2023-01-01T04:11:07.584Z,9.278135
2023-01-01T04:12:07.540Z,9.278105
2023-01-01T04:13:07.527Z,9.278048
2023-01-01T04:14:07.499Z,9.278083
2023-01-01T04:15:07.501Z,9.277999
2023-01-01T04:16:07.535Z,9.278122
2023-01-01T04:17:07.460Z,9.277966
2023-01-01T04:18:07.434Z,9.278030
2023-01-01T04:19:07.435Z,9.278288
2023-01-01T04:20:07.406Z,9.278216
2023-01-01T04:21:07.450Z,9.278238
2023-01-01T04:22:07.368Z,9.278235
2023-01-01T04:23:07.350Z,9.278231
2023-01-01T04:24:07.351Z,9.278226
2023-01-01T04:25:07.329Z,9.278304
2023-01-01T04:26:07.313Z,9.278161
2023-01-01T04:27:07.330Z,9.278066
2023-01-01T04:28:07.323Z,9.278144
2023-01-01T04:29:07.255Z,9.278249
2023-01-01T04:30:07.249Z,9.278246
2023-01-01T04:31:07.242Z,9.278227
2023-01-01T04:32:07.259Z,9.278248
2023-01-01T04:33:07.182Z,9.278266
2023-01-01T04:34:07.172Z,9.278336
2023-01-01T04:35:07.148Z,9.278392
2023-01-01T04:36:07.131Z,9.278426
2023-01-01T04:37:12.914Z,9.278342
2023-01-01T04:38:09.095Z,9.278350
2023-01-01T04:39:07.101Z,9.278361
2023-01-01T04:40:07.074Z,9.278358
2023-01-01T04:41:07.058Z,9.278367
2023-01-01T04:42:07.085Z,9.278406
2023-01-01T04:43:07.051Z,9.278465
2023-01-01T04:44:07.007Z,9.278337
2023-01-01T04:45:06.991Z,9.278295
2023-01-01T04:46:06.993Z,9.278383
2023-01-01T04:47:06.975Z,9.278393
2023-01-01T04:48:06.942Z,9.278396
2023-01-01T04:49:06.937Z,9.278358
2023-01-01T04:50:06.925Z,9.278337
2023-01-01T04:51:06.928Z,9.278354
2023-01-01T04:52:06.905Z,9.278392
2023-01-01T04:53:06.849Z,9.278434
2023-01-01T04:54:06.847Z,9.278328
2023-01-01T04:55:06.871Z,9.278370
2023-01-01T04:56:06.805Z,9.278382
2023-01-01T04:57:06.815Z,9.278265
2023-01-01T04:58:06.779Z,9.278307
2023-01-01T04:59:06.750Z,9.278214
2023-01-01T05:00:06.731Z,9.278275
2023-01-01T05:01:06.863Z,9.278177
2023-01-01T05:02:06.819Z,9.278296
2023-01-01T05:03:06.733Z,9.278161
2023-01-01T05:04:06.681Z,9.278517
2023-01-01T05:05:06.672Z,9.278424
2023-01-01T05:06:06.637Z,9.278377
2023-01-01T05:07:06.640Z,9.278330
2023-01-01T05:08:06.611Z,9.278182
2023-01-01T05:09:06.597Z,9.278152
2023-01-01T05:10:06.563Z,9.278202
2023-01-01T05:11:06.552Z,9.278162
2023-01-01T05:12:06.560Z,9.278135
2023-01-01T05:13:06.524Z,9.278142
2023-01-01T05:14:06.534Z,9.278315
2023-01-01T05:15:06.494Z,9.278275
2023-01-01T05:16:06.508Z,9.278290
2023-01-01T05:17:06.482Z,9.278234
2023-01-01T05:18:06.448Z,9.278288
2023-01-01T05:19:06.419Z,9.278301
2023-01-01T05:20:06.424Z,9.278282
2023-01-01T05:21:06.386Z,9.278288
2023-01-01T05:22:10.667Z,9.278296
2023-01-01T05:23:07.352Z,9.278317
2023-01-01T05:24:06.345Z,9.278235
2023-01-01T05:25:06.318Z,9.278271
2023-01-01T05:26:06.300Z,9.278219
2023-01-01T05:27:06.326Z,9.278197
2023-01-01T05:28:06.270Z,9.278208
2023-01-01T05:29:11.889Z,9.278423
2023-01-01T05:30:08.251Z,9.278536
2023-01-01T05:31:06.215Z,9.278453
2023-01-01T05:35:55.024Z,9.278348
2023-01-01T05:36:55.036Z,9.278351
2023-01-01T05:37:54.985Z,9.278263
2023-01-01T05:38:54.991Z,9.278419
2023-01-01T05:39:54.967Z,9.278324
2023-01-01T05:40:54.943Z,9.278365
2023-01-01T05:41:55.049Z,9.278242
2023-01-01T05:42:54.903Z,9.278438
2023-01-01T05:43:54.903Z,9.278438
2023-01-01T05:44:54.896Z,9.278491
2023-01-01T05:45:54.874Z,9.278332
2023-01-01T05:46:54.880Z,9.278330
2023-01-01T05:47:54.840Z,9.278339
2023-01-01T05:48:54.839Z,9.278341
2023-01-01T05:49:54.786Z,9.278271
2023-01-01T05:50:54.778Z,9.278196
2023-01-01T05:51:54.788Z,9.278286
2023-01-01T05:52:54.730Z,9.278301
2023-01-01T05:53:54.722Z,9.278357
2023-01-01T05:54:54.758Z,9.278213
2023-01-01T05:55:54.687Z,9.278297
2023-01-01T05:56:54.715Z,9.278271
2023-01-01T05:57:54.644Z,9.278219
2023-01-01T05:58:54.637Z,9.278309
2023-01-01T05:59:54.614Z,9.278469
2023-01-01T06:00:54.601Z,9.278452
2023-01-01T06:01:54.784Z,9.278358
2023-01-01T06:02:54.613Z,9.278280
2023-01-01T06:03:54.701Z,9.278332
2023-01-01T06:04:54.555Z,9.278387
2023-01-01T06:05:54.509Z,9.278411
2023-01-01T06:06:54.532Z,9.278431
2023-01-01T06:07:54.481Z,9.278440
2023-01-01T06:08:54.526Z,9.278363
2023-01-01T06:09:54.459Z,9.278113
2023-01-01T06:10:54.438Z,9.278227
2023-01-01T06:11:54.437Z,9.278350
2023-01-01T06:12:54.394Z,9.278392
2023-01-01T06:13:54.394Z,9.278438
2023-01-01T06:14:54.362Z,9.278285
2023-01-01T06:15:54.361Z,9.278468
2023-01-01T06:16:54.399Z,9.278082
2023-01-01T06:17:54.331Z,9.278351
2023-01-01T06:18:54.295Z,9.278423
2023-01-01T06:19:54.280Z,9.278496
2023-01-01T06:20:54.262Z,9.278427
2023-01-01T06:21:54.271Z,9.278614
2023-01-01T06:22:54.234Z,9.277956
2023-01-01T06:23:54.219Z,9.278246
2023-01-01T06:24:54.244Z,9.278353
2023-01-01T06:25:54.177Z,9.278369
2023-01-01T06:26:54.183Z,9.278413
2023-01-01T06:27:54.142Z,9.278485
2023-01-01T06:28:54.130Z,9.278448
2023-01-01T06:29:54.099Z,9.278451
2023-01-01T06:30:54.124Z,9.278370
2023-01-01T06:31:54.113Z,9.278374
2023-01-01T06:32:54.064Z,9.278322
2023-01-01T06:33:54.056Z,9.278281
2023-01-01T06:34:54.024Z,9.278359
2023-01-01T06:35:54.003Z,9.278337
2023-01-01T06:36:54.034Z,9.278510
2023-01-01T06:37:53.996Z,9.278232
2023-01-01T06:38:53.955Z,9.278072
2023-01-01T06:39:53.962Z,9.278382
2023-01-01T06:40:53.918Z,9.278128
2023-01-01T06:41:53.948Z,9.278255
2023-01-01T06:42:53.902Z,9.278440
2023-01-01T06:43:53.897Z,9.278350
2023-01-01T06:44:53.846Z,9.278301
2023-01-01T06:45:53.887Z,9.278278
2023-01-01T06:46:53.848Z,9.278300
2023-01-01T06:47:53.894Z,9.278365
2023-01-01T06:48:53.781Z,9.278291
2023-01-01T06:49:53.784Z,9.278264
2023-01-01T06:50:53.759Z,9.278343
2023-01-01T06:51:53.775Z,9.278312
2023-01-01T06:52:53.709Z,9.278350
2023-01-01T06:53:53.700Z,9.278260
2023-01-01T06:54:53.695Z,9.278419
2023-01-01T06:55:57.446Z,9.278419
2023-01-01T06:56:54.685Z,9.278422
2023-01-01T06:57:53.624Z,9.278436
2023-01-01T06:58:53.615Z,9.278405
2023-01-01T06:59:53.594Z,9.278406
2023-01-01T07:00:53.586Z,9.278279
2023-01-01T07:01:53.621Z,9.278371
2023-01-01T07:02:53.808Z,9.278335
2023-01-01T07:03:53.540Z,9.278297
2023-01-01T07:04:53.520Z,9.278292
2023-01-01T07:05:53.491Z,9.278392
2023-01-01T07:06:53.476Z,9.278457
2023-01-01T07:07:53.491Z,9.278460
2023-01-01T07:08:53.447Z,9.278429
2023-01-01T07:09:53.442Z,9.278406
2023-01-01T07:10:53.414Z,9.278234
2023-01-01T07:11:53.413Z,9.278163
2023-01-01T07:12:53.415Z,9.278277
2023-01-01T07:13:53.383Z,9.278257
2023-01-01T07:14:53.344Z,9.278228
2023-01-01T07:15:53.367Z,9.278311
2023-01-01T07:16:53.303Z,9.278288
2023-01-01T07:17:53.350Z,9.278286
2023-01-01T07:18:53.296Z,9.278298
2023-01-01T07:19:53.265Z,9.278362
2023-01-01T07:20:53.241Z,9.278327
2023-01-01T07:21:53.246Z,9.278274
2023-01-01T07:22:53.282Z,9.278338
2023-01-01T07:23:53.190Z,9.278322
2023-01-01T07:24:53.183Z,9.278358
2023-01-01T07:25:53.164Z,9.278243
2023-01-01T07:26:53.148Z,9.278311
2023-01-01T07:27:53.165Z,9.278285
2023-01-01T07:28:53.123Z,9.278335
2023-01-01T07:29:53.088Z,9.278373
2023-01-01T07:30:53.107Z,9.278268
2023-01-01T07:31:53.058Z,9.278287
2023-01-01T07:32:53.079Z,9.278245
2023-01-01T07:33:53.023Z,9.278274
2023-01-01T07:34:53.005Z,9.278315
2023-01-01T07:35:53.007Z,9.278261
2023-01-01T07:36:52.970Z,9.278237
2023-01-01T07:37:53.017Z,9.278205
2023-01-01T07:38:52.935Z,9.278264
2023-01-01T07:39:52.928Z,9.278228
2023-01-01T07:40:52.907Z,9.278264
2023-01-01T07:41:52.910Z,9.278320
2023-01-01T07:42:52.912Z,9.278349
2023-01-01T07:43:52.862Z,9.278372
2023-01-01T07:44:52.868Z,9.278349
2023-01-01T07:45:52.847Z,9.278255
2023-01-01T07:46:52.823Z,9.278236
2023-01-01T07:47:52.831Z,9.278299
2023-01-01T07:48:52.794Z,9.278344
2023-01-01T07:49:52.791Z,9.278323
2023-01-01T07:50:52.753Z,9.278283
2023-01-01T07:51:52.724Z,9.278173
2023-01-01T07:52:52.743Z,9.278127
2023-01-01T07:53:52.704Z,9.278224
2023-01-01T07:54:52.676Z,9.278353
2023-01-01T07:55:52.661Z,9.278399
2023-01-01T07:56:53.653Z,9.278318
2023-01-01T07:57:52.651Z,9.278292
2023-01-01T07:58:52.605Z,9.278391
2023-01-01T07:59:52.596Z,9.278316
2023-01-01T08:00:52.593Z,9.278336
2023-01-01T08:01:52.688Z,9.278307
2023-01-01T08:02:52.716Z,9.278290
2023-01-01T08:03:52.529Z,9.278288
2023-01-01T08:04:52.505Z,9.278189
2023-01-01T08:05:52.496Z,9.278419
2023-01-01T08:06:52.488Z,9.278146
2023-01-01T08:07:52.502Z,9.278291
2023-01-01T08:08:52.452Z,9.278175
2023-01-01T08:09:52.441Z,9.278248
2023-01-01T08:10:52.430Z,9.278194
2023-01-01T08:11:52.389Z,9.278131
2023-01-01T08:12:52.404Z,9.278206
2023-01-01T08:13:52.353Z,9.278232
2023-01-01T08:14:52.386Z,9.278134
2023-01-01T08:15:52.418Z,9.278167
2023-01-01T08:16:52.313Z,9.278142
2023-01-01T08:17:52.321Z,9.278282
2023-01-01T08:18:52.268Z,9.278243
2023-01-01T08:19:52.260Z,9.278340
2023-01-01T08:20:52.271Z,9.278378
2023-01-01T08:21:52.216Z,9.278349
2023-01-01T08:22:52.236Z,9.278408
2023-01-01T08:23:52.191Z,9.278388
2023-01-01T08:24:52.162Z,9.278416
2023-01-01T08:25:52.152Z,9.278370
2023-01-01T08:26:52.140Z,9.278385
2023-01-01T08:27:52.153Z,9.278286
2023-01-01T08:28:56.968Z,9.278384
2023-01-01T08:29:54.087Z,9.278422
2023-01-01T08:30:52.064Z,9.278450
2023-01-01T08:31:52.068Z,9.278436
2023-01-01T08:32:52.158Z,9.278535
2023-01-01T08:33:52.029Z,9.278575
2023-01-01T08:34:52.028Z,9.278514
2023-01-01T08:35:54.361Z,9.278589
2023-01-01T08:36:52.971Z,9.278554
2023-01-01T08:37:52.016Z,9.278444
2023-01-01T08:38:51.963Z,9.278336
2023-01-01T08:39:52.030Z,9.278216
2023-01-01T08:40:51.927Z,9.278178
2023-01-01T08:41:51.886Z,9.278050
2023-01-01T08:42:51.898Z,9.278242
2023-01-01T08:43:51.854Z,9.278277
2023-01-01T08:44:51.836Z,9.278299
2023-01-01T08:45:51.815Z,9.278408
2023-01-01T08:46:51.839Z,9.278470
2023-01-01T08:47:51.832Z,9.278461
2023-01-01T08:48:51.775Z,9.278479
2023-01-01T08:49:51.778Z,9.278360
2023-01-01T08:50:51.731Z,9.278399
2023-01-01T08:51:51.729Z,9.278288
2023-01-01T08:52:51.760Z,9.278120
2023-01-01T08:53:51.850Z,9.278162
2023-01-01T08:54:51.749Z,9.278091
2023-01-01T08:55:51.723Z,9.278193
2023-01-01T08:56:51.653Z,9.278217
2023-01-01T08:57:52.659Z,9.278225
2023-01-01T08:58:51.630Z,9.278278
2023-01-01T08:59:51.608Z,9.278346
2023-01-01T09:00:51.585Z,9.278308
2023-01-01T09:01:51.746Z,9.278255
2023-01-01T09:02:51.615Z,9.278234
2023-01-01T09:03:51.530Z,9.278198
2023-01-01T09:04:51.554Z,9.278219
2023-01-01T09:05:51.487Z,9.278191
2023-01-01T09:06:51.518Z,9.278159
2023-01-01T09:07:51.490Z,9.278132
2023-01-01T09:08:51.443Z,9.278131
2023-01-01T09:09:51.418Z,9.278110
2023-01-01T09:10:51.411Z,9.278065
2023-01-01T09:11:51.407Z,9.277982
2023-01-01T09:12:51.415Z,9.278056
2023-01-01T09:13:51.367Z,9.278161
2023-01-01T09:14:51.353Z,9.278067
2023-01-01T09:15:51.390Z,9.278100
2023-01-01T09:16:51.319Z,9.278227
2023-01-01T09:17:51.349Z,9.278133
2023-01-01T09:18:51.311Z,9.278432
2023-01-01T09:19:51.272Z,9.278280
2023-01-01T09:20:51.267Z,9.278308
2023-01-01T09:21:51.231Z,9.278072
2023-01-01T09:22:51.261Z,9.278141
2023-01-01T09:23:51.209Z,9.278175
2023-01-01T09:24:51.197Z,9.278203
2023-01-01T09:25:51.165Z,9.278154
2023-01-01T09:26:51.166Z,9.278096
2023-01-01T09:27:51.189Z,9.278163
2023-01-01T09:28:51.124Z,9.278180
2023-01-01T09:29:51.091Z,9.278129
2023-01-01T09:30:51.086Z,9.277910
2023-01-01T09:31:51.120Z,9.277687
2023-01-01T09:32:51.098Z,9.277948
2023-01-01T09:33:51.042Z,9.278109
2023-01-01T09:34:52.590Z,9.278046
2023-01-01T09:35:52.017Z,9.278070
2023-01-01T09:37:07.919Z,9.278168
2023-01-01T09:37:51.007Z,9.278734
2023-01-01T09:38:50.963Z,9.277993
2023-01-01T09:39:50.942Z,9.278266
2023-01-01T09:40:51.571Z,9.277674
2023-01-01T09:41:51.899Z,9.277828
2023-01-01T09:42:50.919Z,9.278226
2023-01-01T09:43:50.867Z,9.278240
2023-01-01T09:44:50.859Z,9.278208
2023-01-01T09:45:50.877Z,9.278301
2023-01-01T09:46:50.832Z,9.278310
2023-01-01T09:47:50.840Z,9.278255
2023-01-01T09:48:50.796Z,9.278279
2023-01-01T09:49:50.779Z,9.278260
2023-01-01T09:50:50.768Z,9.278233
2023-01-01T09:51:57.518Z,9.278236
2023-01-01T09:52:52.751Z,9.278314
2023-01-01T09:53:50.703Z,9.278300
2023-01-01T09:54:50.695Z,9.278278
2023-01-01T09:55:50.671Z,9.278239
2023-01-01T09:56:50.680Z,9.278243
2023-01-01T09:57:50.676Z,9.278169
2023-01-01T09:58:50.620Z,9.278163
2023-01-01T09:59:50.619Z,9.278157
2023-01-01T10:00:50.634Z,9.278162
2023-01-01T10:01:50.689Z,9.278068
2023-01-01T10:02:53.570Z,9.277854
2023-01-01T10:03:51.606Z,9.278072
2023-01-01T10:04:50.528Z,9.278216
2023-01-01T10:05:50.511Z,9.278325
2023-01-01T10:06:50.482Z,9.278204
2023-01-01T10:07:50.483Z,9.278247
2023-01-01T10:08:50.481Z,9.278318
2023-01-01T10:09:50.460Z,9.278332
2023-01-01T10:10:50.419Z,9.278309
2023-01-01T10:11:50.442Z,9.278403
2023-01-01T10:12:50.400Z,9.278305
2023-01-01T10:13:50.411Z,9.278416
2023-01-01T10:14:50.359Z,9.278404
2023-01-01T10:15:50.335Z,9.278339
2023-01-01T10:16:50.403Z,9.278257
2023-01-01T10:17:50.300Z,9.278348
2023-01-01T10:18:50.307Z,9.278174
2023-01-01T10:19:50.268Z,9.278320
2023-01-01T10:20:50.257Z,9.278316
2023-01-01T10:21:50.233Z,9.278193
2023-01-01T10:22:50.214Z,9.278297
2023-01-01T10:23:50.235Z,9.278258
2023-01-01T10:24:50.187Z,9.278124
2023-01-01T10:25:50.179Z,9.278231
2023-01-01T10:26:50.155Z,9.278321
2023-01-01T10:27:55.473Z,9.278221
2023-01-01T10:28:52.154Z,9.278141
2023-01-01T10:29:50.255Z,9.278173
2023-01-01T10:30:50.085Z,9.278180
2023-01-01T10:31:50.163Z,9.278228
2023-01-01T10:32:50.071Z,9.278256
2023-01-01T10:33:50.084Z,9.278313
2023-01-01T10:34:50.033Z,9.278339
2023-01-01T10:35:50.005Z,9.278296
2023-01-01T10:36:49.992Z,9.278189
2023-01-01T10:37:49.980Z,9.278313
2023-01-01T10:38:49.984Z,9.278371
2023-01-01T10:39:49.930Z,9.278325
2023-01-01T10:40:50.920Z,9.278326
2023-01-01T10:41:49.910Z,9.278198
2023-01-01T10:42:49.902Z,9.278121
2023-01-01T10:43:49.902Z,9.278267
2023-01-01T10:44:49.850Z,9.278099
2023-01-01T10:45:50.860Z,9.278310
2023-01-01T10:46:49.826Z,9.278216
2023-01-01T10:47:49.824Z,9.278235
2023-01-01T10:48:49.824Z,9.278145
2023-01-01T10:49:49.786Z,9.278228
2023-01-01T10:50:49.758Z,9.278192
2023-01-01T10:51:49.763Z,9.278193
2023-01-01T10:52:49.725Z,9.277982
2023-01-01T10:53:49.749Z,9.278170
2023-01-01T10:54:49.694Z,9.278235
2023-01-01T10:55:49.679Z,9.278317
2023-01-01T10:56:49.683Z,9.278268
2023-01-01T10:57:49.650Z,9.278308
2023-01-01T10:58:49.692Z,9.278204
2023-01-01T10:59:54.257Z,9.278176
2023-01-01T11:00:50.657Z,9.278173
2023-01-01T11:01:49.691Z,9.278076
2023-01-01T11:02:49.614Z,9.278220
2023-01-01T11:03:49.688Z,9.278131
2023-01-01T11:04:49.565Z,9.278160
2023-01-01T11:05:49.519Z,9.278242
2023-01-01T11:06:49.521Z,9.278081
2023-01-01T11:07:49.503Z,9.278160
2023-01-01T11:08:49.508Z,9.278302
2023-01-01T11:10:02.465Z,9.278180
2023-01-01T11:10:51.444Z,9.278377
2023-01-01T11:11:49.421Z,9.278334
2023-01-01T11:13:06.197Z,9.278260
2023-01-01T11:13:51.426Z,9.278284
2023-01-01T11:14:49.377Z,9.278305
2023-01-01T11:15:49.356Z,9.278320
2023-01-01T11:16:49.416Z,9.278249
2023-01-01T11:17:49.323Z,9.278369
2023-01-01T11:18:49.348Z,9.278303
2023-01-01T11:19:51.891Z,9.278306
2023-01-01T11:20:50.265Z,9.278238
2023-01-01T11:21:49.264Z,9.278263
2023-01-01T11:22:49.269Z,9.278335
2023-01-01T11:23:49.304Z,9.278441
2023-01-01T11:24:49.205Z,9.278229
2023-01-01T11:25:49.183Z,9.278293
2023-01-01T11:26:54.225Z,9.278272
2023-01-01T11:27:51.174Z,9.278219
2023-01-01T11:28:49.187Z,9.278240
2023-01-01T11:29:49.117Z,9.278214
2023-01-01T11:30:49.147Z,9.278149
2023-01-01T11:31:49.097Z,9.278232
2023-01-01T11:32:53.656Z,9.278244
2023-01-01T11:33:51.091Z,9.278291
2023-01-01T11:34:49.033Z,9.278438
2023-01-01T11:35:49.080Z,9.278362
2023-01-01T11:36:49.000Z,9.278200
2023-01-01T11:37:48.985Z,9.278110
2023-01-01T11:38:48.999Z,9.278144
2023-01-01T11:39:48.948Z,9.278232
2023-01-01T11:40:48.934Z,9.278244
2023-01-01T11:41:48.926Z,9.278202
2023-01-01T11:42:48.910Z,9.278155
2023-01-01T11:43:48.929Z,9.278219
2023-01-01T11:44:48.892Z,9.278187
2023-01-01T11:45:48.882Z,9.278316
2023-01-01T11:46:48.863Z,9.278396
2023-01-01T11:47:48.815Z,9.278353
2023-01-01T11:48:48.876Z,9.278375
2023-01-01T11:49:48.792Z,9.278403
2023-01-01T11:50:53.676Z,9.278249
2023-01-01T11:51:50.761Z,9.278214
2023-01-01T11:52:48.939Z,9.278210
2023-01-01T11:53:48.748Z,9.278295